Time;durP1;ratioP1;P1;durP2;ratioP2;P2;SDS_P1;SDS_P2;PMS_P1;PMS_P2;Temp;Humidity;BMP_temperature;BMP_pressure;BME280_temperature;BME280_humidity;BME280_pressure;Samples;Min_cycle;Max_cycle;Signal;HPM_P1;HPM_P2
2023/12/20 00:02:13;;;;;;;42.87;9.47;;;-0.90;99.90;;;-3.08;100.00;100301.97;10476276;27;96597;-90
2023/12/20 00:07:17;;;;;;;38.43;9.27;;;-0.80;99.90;;;-3.03;100.00;100293.00;10498221;27;96680;-90
2023/12/20 00:12:20;;;;;;;37.53;8.27;;;-0.80;99.90;;;-3.04;100.00;100285.31;10504396;27;96858;-90
2023/12/20 00:17:23;;;;;;;52.43;9.40;;;-0.80;99.90;;;-3.02;100.00;100275.66;10461083;27;97449;-90
2023/12/20 00:22:27;;;;;;;38.73;9.60;;;-0.80;99.90;;;-2.99;100.00;100268.53;10441648;27;96546;-89
2023/12/20 00:27:30;;;;;;;51.30;9.93;;;-0.80;99.90;;;-3.00;100.00;100253.00;10461409;27;97442;-91
2023/12/20 00:32:35;;;;;;;50.27;10.63;;;-0.80;99.90;;;-2.95;100.00;100243.22;10477746;27;96636;-90
2023/12/20 00:37:38;;;;;;;37.17;8.53;;;-0.70;99.90;;;-2.91;100.00;100241.28;10460035;27;96622;-91
2023/12/20 00:42:42;;;;;;;57.83;10.23;;;-0.70;99.90;;;-2.90;100.00;100229.97;10494334;27;96471;-90
2023/12/20 00:47:45;;;;;;;45.27;10.43;;;-0.70;99.90;;;-2.94;100.00;100224.06;10472386;27;97452;-90
2023/12/20 00:52:49;;;;;;;35.57;8.57;;;-0.80;99.90;;;-2.93;100.00;100214.53;10441603;27;96505;-90
2023/12/20 00:57:53;;;;;;;41.30;9.47;;;-0.70;99.90;;;-2.86;100.00;100218.50;10445505;27;96810;-90
2023/12/20 01:02:57;;;;;;;39.17;9.07;;;-0.70;99.90;;;-2.81;100.00;100208.69;10457760;27;97969;-90
2023/12/20 01:08:02;;;;;;;41.67;9.63;;;-0.60;99.90;;;-2.77;100.00;100204.97;10466830;27;97488;-90
2023/12/20 01:13:06;;;;;;;40.73;8.83;;;-0.60;99.90;;;-2.77;100.00;100198.00;10500905;27;96831;-90
2023/12/20 01:18:09;;;;;;;35.43;8.27;;;-0.50;99.90;;;-2.75;100.00;100195.34;10465990;27;96742;-89
2023/12/20 01:23:13;;;;;;;41.67;9.00;;;-0.50;99.90;;;-2.88;100.00;100176.09;10450638;27;96581;-90
2023/12/20 01:28:17;;;;;;;26.57;8.70;;;-0.50;99.90;;;-2.75;100.00;100182.34;10427153;27;96532;-91
2023/12/20 01:33:20;;;;;;;50.17;9.40;;;-0.60;99.90;;;-2.81;100.00;100175.72;10471135;27;96534;-90
2023/12/20 01:38:24;;;;;;;40.37;10.33;;;-0.60;99.90;;;-2.78;100.00;100161.69;10436460;27;96781;-91
2023/12/20 01:43:27;;;;;;;78.00;11.20;;;-0.60;99.90;;;-2.83;100.00;100143.72;10522978;27;96504;-90
2023/12/20 01:48:35;;;;;;;33.37;9.20;;;-0.60;99.90;;;-2.78;100.00;100140.88;10459374;27;97773;-90
2023/12/20 01:53:40;;;;;;;28.87;8.17;;;-0.60;99.90;;;-2.78;100.00;100131.31;10477997;27;96607;-90
2023/12/20 01:58:46;;;;;;;35.73;8.43;;;-0.60;99.90;;;-2.78;100.00;100122.69;10480758;27;96918;-90
2023/12/20 02:03:51;;;;;;;41.70;8.93;;;-0.60;99.90;;;-2.81;100.00;100108.09;10467461;27;97786;-89
2023/12/20 02:08:55;;;;;;;27.83;7.23;;;-0.60;99.90;;;-2.88;100.00;100098.09;10453401;27;96558;-90
2023/12/20 02:13:58;;;;;;;67.37;10.77;;;-0.60;99.90;;;-2.90;100.00;100090.38;10497668;27;96465;-91
2023/12/20 02:19:02;;;;;;;55.10;9.23;;;-0.70;99.90;;;-2.99;100.00;100070.94;10462488;27;96970;-90
2023/12/20 02:24:05;;;;;;;42.20;9.47;;;-0.80;99.90;;;-2.98;100.00;100075.22;10453342;27;96661;-90
2023/12/20 02:29:09;;;;;;;49.73;7.73;;;-0.80;99.90;;;-3.06;100.00;100058.34;10461783;27;97112;-91
2023/12/20 02:34:12;;;;;;;48.53;9.13;;;-0.80;99.90;;;-3.06;100.00;100048.81;10445130;27;97657;-90
2023/12/20 02:39:16;;;;;;;39.43;8.80;;;-0.80;99.90;;;-3.04;100.00;100041.75;10434383;27;96609;-90
2023/12/20 02:44:19;;;;;;;36.90;8.90;;;-0.80;99.90;;;-3.03;100.00;100038.22;10478284;27;96479;-89
2023/12/20 02:49:22;;;;;;;33.37;7.60;;;-0.80;99.90;;;-3.01;100.00;100035.53;10508756;27;96337;-91
2023/12/20 02:54:26;;;;;;;35.73;9.13;;;-0.80;99.90;;;-3.03;100.00;100037.41;10479689;27;96838;-90
2023/12/20 02:59:29;;;;;;;27.57;7.23;;;-0.80;99.90;;;-3.06;100.00;100038.41;10468642;27;96583;-89
2023/12/20 03:04:32;;;;;;;36.20;8.63;;;-0.90;99.90;;;-3.08;100.00;100040.25;10488006;27;96758;-89
2023/12/20 03:09:36;;;;;;;32.73;9.37;;;-0.90;99.90;;;-3.13;100.00;100047.47;10471696;27;96703;-89
2023/12/20 03:14:59;;;;;;;31.33;8.40;;;-0.90;99.90;;;-3.19;100.00;100037.41;10517995;27;96502;-90
2023/12/20 03:20:03;;;;;;;30.63;9.50;;;-1.00;99.90;;;-3.25;100.00;100045.53;10491801;27;96866;-90
2023/12/20 03:25:07;;;;;;;21.97;8.17;;;-1.10;99.90;;;-3.30;100.00;100039.75;10486762;27;96763;-90
2023/12/20 03:30:11;;;;;;;27.70;7.57;;;-1.10;99.90;;;-3.32;100.00;100028.59;10451431;27;97063;-91
2023/12/20 03:35:14;;;;;;;36.87;10.07;;;-1.10;99.90;;;-3.33;100.00;100019.13;10468175;27;96712;-90
2023/12/20 03:40:17;;;;;;;30.57;8.37;;;-1.10;99.90;;;-3.31;100.00;100023.31;10444134;27;96674;-90
2023/12/20 03:45:21;;;;;;;32.17;9.20;;;-1.10;99.90;;;-3.30;100.00;100038.00;10461996;27;96493;-90
2023/12/20 03:50:25;;;;;;;26.00;9.57;;;-1.10;99.90;;;-3.26;100.00;100042.09;10466830;27;96769;-91
2023/12/20 03:55:28;;;;;;;30.57;7.90;;;-1.10;99.90;;;-3.22;100.00;100034.16;10473624;27;96633;-90
2023/12/20 04:00:32;;;;;;;40.03;9.50;;;-1.00;99.90;;;-3.22;100.00;100037.59;10465174;27;96522;-90
2023/12/20 04:05:35;;;;;;;37.13;9.63;;;-1.00;99.90;;;-3.25;100.00;100038.56;10452313;27;96448;-90
2023/12/20 04:10:39;;;;;;;29.00;9.80;;;-1.10;99.90;;;-3.29;100.00;100008.50;10480470;27;96496;-90
2023/12/20 04:15:43;;;;;;;33.43;9.00;;;-1.10;99.90;;;-3.32;100.00;100006.06;10476187;27;97138;-90
2023/12/20 04:20:46;;;;;;;38.97;9.30;;;-1.00;99.90;;;-3.28;100.00;100006.75;10477745;27;96613;-91
2023/12/20 04:25:50;;;;;;;34.60;10.23;;;-1.00;99.90;;;-3.26;100.00;99995.31;10476269;27;96507;-91
2023/12/20 04:30:53;;;;;;;45.00;10.43;;;-1.00;99.90;;;-3.25;100.00;99985.75;10459753;27;96865;-90
2023/12/20 04:35:57;;;;;;;29.77;10.30;;;-1.00;99.90;;;-3.26;100.00;99971.09;10461436;27;97363;-90
2023/12/20 04:41:01;;;;;;;35.63;10.47;;;-1.10;99.90;;;-3.28;100.00;99962.56;10458880;27;96541;-90
2023/12/20 04:46:04;;;;;;;27.40;8.97;;;-1.10;99.90;;;-3.38;100.00;99945.81;10481045;27;96596;-89
2023/12/20 04:51:07;;;;;;;36.30;10.47;;;-1.20;99.90;;;-3.44;100.00;99939.19;10449070;27;96770;-90
2023/12/20 04:56:11;;;;;;;38.93;9.03;;;-1.20;99.90;;;-3.37;100.00;99944.88;10504147;27;98136;-91
2023/12/20 05:01:14;;;;;;;34.77;9.17;;;-1.20;99.90;;;-3.41;100.00;99927.81;10504984;27;96608;-90
2023/12/20 05:06:17;;;;;;;32.90;7.97;;;-1.20;99.90;;;-3.35;100.00;99917.06;10478657;27;96546;-91
2023/12/20 05:11:21;;;;;;;34.87;8.27;;;-1.10;99.90;;;-3.36;100.00;99920.56;10510692;27;96454;-92
2023/12/20 05:16:24;;;;;;;34.00;8.43;;;-1.10;99.90;;;-3.39;100.00;99920.75;10498581;27;96844;-92
2023/12/20 05:21:28;;;;;;;33.37;8.60;;;-1.20;99.90;;;-3.47;100.00;99907.38;10477669;27;98051;-91
2023/12/20 05:26:31;;;;;;;39.13;9.47;;;-1.20;99.90;;;-3.62;100.00;99904.69;10487415;27;96543;-92
2023/12/20 05:31:34;;;;;;;31.17;8.37;;;-1.30;99.90;;;-3.65;100.00;99907.47;10518333;27;96437;-92
2023/12/20 05:36:38;;;;;;;33.00;9.07;;;-1.40;99.90;;;-3.67;100.00;99896.31;10479075;27;96959;-91
2023/12/20 05:41:43;;;;;;;27.87;8.70;;;-1.50;99.90;;;-3.68;100.00;99894.63;10468171;27;96771;-91
2023/12/20 05:46:46;;;;;;;23.50;9.33;;;-1.50;99.90;;;-3.79;100.00;99871.84;10485029;27;96562;-92
2023/12/20 05:51:51;;;;;;;30.97;8.47;;;-1.50;99.90;;;-3.79;100.00;99869.25;10472779;27;96428;-91
2023/12/20 05:56:54;;;;;;;25.47;7.57;;;-1.60;99.90;;;-3.81;100.00;99878.06;10466118;27;96583;-92
2023/12/20 06:01:57;;;;;;;26.73;8.60;;;-1.60;99.90;;;-3.88;100.00;99890.56;10431980;27;96772;-92
2023/12/20 06:07:00;;;;;;;29.17;8.33;;;-1.60;99.90;;;-3.93;100.00;99886.53;10460365;27;96647;-91
2023/12/20 06:12:05;;;;;;;31.00;9.23;;;-1.70;99.90;;;-3.96;100.00;99878.88;10479611;27;96562;-91
2023/12/20 06:17:08;;;;;;;30.40;8.30;;;-1.70;99.90;;;-4.04;100.00;99881.91;10453467;27;96660;-90
2023/12/20 06:22:11;;;;;;;33.40;8.87;;;-1.80;99.90;;;-3.98;100.00;99898.91;10485078;27;96534;-91
2023/12/20 06:27:14;;;;;;;27.40;9.17;;;-1.80;99.90;;;-4.09;100.00;99889.94;10471650;27;96549;-92
2023/12/20 06:32:18;;;;;;;27.13;10.40;;;-1.80;99.90;;;-4.05;100.00;99906.19;10455751;27;97450;-93
2023/12/20 06:37:22;;;;;;;25.20;9.80;;;-1.80;99.90;;;-4.03;100.00;99925.09;10494324;27;96654;-92
2023/12/20 06:42:29;;;;;;;25.37;10.13;;;-1.80;99.90;;;-4.04;100.00;99939.84;10447542;27;96638;-93
2023/12/20 06:47:37;;;;;;;24.47;7.93;;;-1.80;99.90;;;-3.99;100.00;99949.16;10445179;27;98584;-93
2023/12/20 06:52:41;;;;;;;21.87;7.80;;;-1.80;99.90;;;-3.95;100.00;99940.28;10433885;27;96925;-93
2023/12/20 06:57:44;;;;;;;26.90;8.97;;;-1.70;99.90;;;-3.96;100.00;99942.03;10447939;27;96748;-92
2023/12/20 07:02:48;;;;;;;28.83;8.97;;;-1.70;99.90;;;-4.00;100.00;99940.53;10486777;27;96724;-93
2023/12/20 07:07:52;;;;;;;34.10;9.60;;;-1.70;99.90;;;-4.03;100.00;99936.31;10476688;27;96950;-92
2023/12/20 07:12:55;;;;;;;26.07;9.00;;;-1.70;99.90;;;-4.00;100.00;99926.72;10440830;27;98478;-92
2023/12/20 07:18:00;;;;;;;25.33;9.23;;;-1.70;99.90;;;-4.00;100.00;99934.50;10462468;27;96712;-94
2023/12/20 07:23:04;;;;;;;22.73;9.00;;;-1.80;99.90;;;-3.96;100.00;99925.63;10484124;27;96930;-93
2023/12/20 07:28:07;;;;;;;43.97;9.97;;;-1.70;99.90;;;-3.89;100.00;99933.00;10463765;27;96567;-95
2023/12/20 07:33:12;;;;;;;28.93;7.93;;;-1.60;99.90;;;-3.88;100.00;99923.47;10463335;27;97086;-93
2023/12/20 07:38:16;;;;;;;35.67;9.83;;;-1.60;99.90;;;-3.81;100.00;99930.00;10465944;27;96445;-93
2023/12/20 07:43:20;;;;;;;37.37;10.87;;;-1.50;99.90;;;-3.73;100.00;99922.59;10456790;27;96515;-95
2023/12/20 07:48:23;;;;;;;49.07;11.40;;;-1.50;99.90;;;-3.66;100.00;99912.72;10488804;27;96386;-93
2023/12/20 07:53:27;;;;;;;28.17;7.73;;;-1.40;99.90;;;-3.64;100.00;99906.53;10442849;27;96650;-93
2023/12/20 07:58:31;;;;;;;51.23;9.77;;;-1.30;99.90;;;-3.55;100.00;99913.81;10463911;27;96458;-94
2023/12/20 08:03:52;;;;;;;29.00;8.35;;;-1.20;99.90;;;-3.46;100.00;99914.22;10467553;27;96363;-94
2023/12/20 08:08:56;;;;;;;28.47;10.10;;;-1.20;99.90;;;-3.42;100.00;99907.91;10497357;27;96498;-94
2023/12/20 08:14:09;;;;;;;30.37;9.80;;;-1.20;99.90;;;-3.39;100.00;99905.16;10497384;27;97222;-94
2023/12/20 08:19:13;;;;;;;41.53;11.60;;;-1.10;99.90;;;-3.35;100.00;99891.91;10494161;27;96409;-93
2023/12/20 08:24:17;;;;;;;31.87;10.10;;;-1.10;99.90;;;-3.32;100.00;99896.09;10475029;27;97050;-93
2023/12/20 08:29:21;;;;;;;35.67;12.00;;;-1.00;99.90;;;-3.24;100.00;99896.47;10488049;27;97187;-95
2023/12/20 08:34:24;;;;;;;41.73;13.03;;;-0.90;99.90;;;-3.12;100.00;99903.59;10451519;27;96674;-94
2023/12/20 08:39:29;;;;;;;32.57;9.77;;;-0.90;99.90;;;-3.08;100.00;99902.47;10490148;27;96509;-94
2023/12/20 08:44:33;;;;;;;35.27;10.70;;;-0.80;99.90;;;-3.08;100.00;99905.06;10488205;27;96509;-93
2023/12/20 08:49:36;;;;;;;45.57;11.93;;;-0.80;99.90;;;-3.06;100.00;99907.56;10447563;27;96753;-94
2023/12/20 08:54:39;;;;;;;36.47;11.70;;;-0.80;99.90;;;-3.04;100.00;99919.59;10457707;27;96502;-94
2023/12/20 08:59:45;;;;;;;50.57;14.67;;;-0.80;99.90;;;-3.02;100.00;99916.88;10472611;27;96912;-94
2023/12/20 09:04:49;;;;;;;40.63;11.40;;;-0.80;99.90;;;-3.08;100.00;99915.47;10464903;27;96598;-94
2023/12/20 09:09:53;;;;;;;73.73;15.60;;;-0.80;99.90;;;-2.96;100.00;99908.72;10450348;27;96664;-93
2023/12/20 09:14:56;;;;;;;44.93;13.40;;;-0.80;99.90;;;-2.94;100.00;99914.66;10469066;27;96716;-94
2023/12/20 09:20:00;;;;;;;42.03;12.13;;;-0.70;99.90;;;-2.82;100.00;99900.09;10449117;27;96876;-94
2023/12/20 09:25:05;;;;;;;38.27;12.83;;;-0.60;99.90;;;-2.75;100.00;99886.69;10464419;27;96923;-94
2023/12/20 09:30:09;;;;;;;44.33;15.70;;;-0.50;99.90;;;-2.64;100.00;99872.19;10471307;27;96550;-93
2023/12/20 09:35:14;;;;;;;39.30;13.57;;;-0.30;99.90;;;-2.45;100.00;99881.41;10485170;27;96570;-96
2023/12/20 09:40:22;;;;;;;39.90;11.87;;;-0.20;99.90;;;-2.30;100.00;99861.41;10466109;27;96534;-96
2023/12/20 09:45:25;;;;;;;42.43;11.57;;;-0.10;99.90;;;-2.22;100.00;99863.50;10468747;27;96627;-91
2023/12/20 09:50:32;;;;;;;56.73;13.27;;;0.00;99.90;;;-2.13;100.00;99849.09;10485533;27;96882;-93
2023/12/20 09:55:37;;;;;;;39.77;11.70;;;0.10;99.90;;;-2.10;100.00;99841.91;10475337;27;97283;-93
2023/12/20 10:00:41;;;;;;;37.17;11.10;;;0.20;99.90;;;-1.95;100.00;99835.75;10484962;27;97755;-92
2023/12/20 10:05:44;;;;;;;58.93;17.57;;;0.30;99.90;;;-1.94;100.00;99821.81;10467221;27;96698;-94
2023/12/20 10:10:49;;;;;;;49.37;14.80;;;0.40;99.90;;;-1.80;100.00;99820.06;10521581;27;96520;-94
2023/12/20 10:15:52;;;;;;;42.13;13.87;;;0.50;99.90;;;-1.76;100.00;99816.34;10473816;27;96696;-94
2023/12/20 10:20:56;;;;;;;47.77;16.57;;;0.60;99.90;;;-1.70;100.00;99810.75;10475788;27;96617;-94
2023/12/20 10:26:00;;;;;;;41.67;13.07;;;0.60;99.90;;;-1.65;100.00;99787.84;10492164;27;96563;-94
2023/12/20 10:31:04;;;;;;;49.13;14.77;;;0.70;99.90;;;-1.67;100.00;99769.72;10469372;27;96931;-94
2023/12/20 10:36:09;;;;;;;58.57;15.10;;;0.70;99.90;;;-1.60;100.00;99762.31;10479343;27;96547;-95
2023/12/20 10:41:17;;;;;;;30.23;11.80;;;0.70;99.90;;;-1.50;100.00;99752.97;10512231;27;97076;-94
2023/12/20 10:46:20;;;;;;;58.47;15.53;;;0.80;99.90;;;-1.44;100.00;99738.66;10519233;27;97141;-93
2023/12/20 10:51:29;;;;;;;72.03;14.97;;;0.90;99.90;;;-1.33;100.00;99732.72;10484496;27;96969;-95
2023/12/20 10:56:33;;;;;;;59.90;17.20;;;1.00;99.90;;;-1.29;100.00;99732.44;10472306;27;97182;-93
2023/12/20 11:01:40;;;;;;;61.13;18.67;;;1.00;99.90;;;-1.15;100.00;99741.91;10463782;27;98162;-93
2023/12/20 11:07:23;;;;;;;57.07;19.07;;;1.10;99.90;;;-0.99;100.00;99724.28;10475927;27;96437;-94
2023/12/20 11:12:51;;;;;;;54.07;18.77;;;1.30;99.90;;;-0.89;100.00;99694.03;10473535;27;96515;-94
2023/12/20 11:17:56;;;;;;;60.10;26.07;;;1.40;99.90;;;-0.78;100.00;99681.97;10445854;27;97839;-94
2023/12/20 11:23:00;;;;;;;51.60;18.43;;;1.50;99.90;;;-0.68;100.00;99680.41;10446086;27;97194;-94
2023/12/20 11:28:10;;;;;;;43.80;16.97;;;1.70;99.90;;;-0.58;100.00;99679.63;10445702;27;96741;-94
2023/12/20 11:33:15;;;;;;;48.17;17.33;;;1.80;99.90;;;-0.45;100.00;99666.53;10451680;27;96842;-93
2023/12/20 11:38:22;;;;;;;62.73;18.13;;;1.90;99.90;;;-0.45;100.00;99678.75;10445558;27;96633;-90
2023/12/20 11:43:37;;;;;;;65.17;21.63;;;1.90;99.90;;;-0.44;100.00;99685.63;10455236;27;97669;-93
2023/12/20 11:48:40;;;;;;;54.33;19.33;;;1.90;99.90;;;-0.27;100.00;99667.81;10421137;27;97691;-93
2023/12/20 11:53:44;;;;;;;61.47;22.50;;;2.10;99.90;;;0.03;100.00;99656.03;10484880;27;96508;-92
2023/12/20 11:58:48;;;;;;;58.27;22.50;;;2.30;99.90;;;0.37;100.00;99663.97;10468565;27;96573;-93
2023/12/20 12:04:06;;;;;;;52.70;20.70;;;2.70;99.90;;;0.68;100.00;99646.78;10446153;27;97268;-94
2023/12/20 12:09:10;;;;;;;46.57;18.00;;;3.00;99.90;;;0.75;100.00;99633.09;10471234;27;97963;-94
2023/12/20 12:14:14;;;;;;;53.97;21.07;;;3.10;99.90;;;0.76;100.00;99640.00;10465030;27;96429;-93
2023/12/20 12:19:26;;;;;;;38.07;16.20;;;3.10;99.90;;;0.76;100.00;99631.31;10471282;27;98000;-94
2023/12/20 12:24:29;;;;;;;44.97;18.97;;;3.10;99.90;;;0.90;100.00;99628.47;10436558;27;96604;-94
2023/12/20 12:29:35;;;;;;;30.53;14.33;;;3.20;99.90;;;1.17;100.00;99625.44;10465545;27;96424;-93
2023/12/20 12:34:39;;;;;;;10.73;5.90;;;3.30;99.90;;;1.79;100.00;99624.78;10497441;27;96622;-94
2023/12/20 12:39:43;;;;;;;8.53;4.40;;;3.80;99.90;;;2.46;100.00;99617.47;10490945;27;96812;-95
2023/12/20 12:44:47;;;;;;;7.67;4.00;;;4.50;99.90;;;2.86;100.00;99618.34;10506017;27;96707;-94
2023/12/20 12:49:53;;;;;;;6.40;4.10;;;4.90;99.90;;;3.24;100.00;99616.81;10452057;27;96515;-94
2023/12/20 12:54:56;;;;;;;7.60;4.30;;;5.30;99.90;;;3.39;100.00;99604.13;10469900;27;96744;-93
2023/12/20 13:00:00;;;;;;;8.50;4.23;;;5.50;99.90;;;3.53;100.00;99613.38;10483147;27;97619;-91
2023/12/20 13:05:07;;;;;;;7.17;3.90;;;5.60;99.90;;;3.63;100.00;99601.09;10430043;27;98046;-91
2023/12/20 13:10:11;;;;;;;8.43;4.20;;;5.70;99.90;;;3.53;100.00;99587.94;10461303;27;96496;-92
2023/12/20 13:15:15;;;;;;;7.60;4.30;;;5.80;99.90;;;3.62;100.00;99600.25;10467132;27;96438;-91
2023/12/20 13:20:18;;;;;;;8.13;3.70;;;5.80;99.90;;;3.60;100.00;99582.97;10449801;27;96577;-91
2023/12/20 13:25:21;;;;;;;7.50;3.90;;;5.80;99.90;;;3.65;100.00;99575.50;10508442;27;96596;-93
2023/12/20 13:30:25;;;;;;;7.77;4.37;;;5.80;99.90;;;3.69;100.00;99580.34;10524065;27;96418;-91
2023/12/20 13:35:28;;;;;;;5.63;3.17;;;5.80;99.90;;;3.78;100.00;99578.69;10487577;27;96711;-92
2023/12/20 13:40:33;;;;;;;6.17;2.60;;;5.90;99.90;;;3.90;100.00;99585.47;10495859;27;96475;-93
2023/12/20 13:45:37;;;;;;;5.63;2.97;;;6.00;99.90;;;3.97;100.00;99562.91;10449445;27;96556;-94
2023/12/20 13:50:40;;;;;;;5.67;3.50;;;6.10;99.90;;;4.18;100.00;99570.59;10481430;27;97147;-92
2023/12/20 13:55:43;;;;;;;6.53;3.13;;;6.20;99.90;;;4.20;100.00;99578.34;10470125;27;96661;-92
2023/12/20 14:00:48;;;;;;;6.13;3.13;;;6.30;99.90;;;4.22;100.00;99565.88;10468835;27;97177;-93
2023/12/20 14:05:54;;;;;;;4.83;2.90;;;6.30;99.90;;;4.21;100.00;99545.81;10462233;27;96593;-92
2023/12/20 14:10:58;;;;;;;4.53;2.30;;;6.40;99.90;;;4.23;100.00;99555.22;10483746;27;96634;-94
2023/12/20 14:16:03;;;;;;;5.13;2.87;;;6.40;99.90;;;4.26;100.00;99546.22;10488451;27;97022;-93
2023/12/20 14:21:07;;;;;;;3.90;2.50;;;6.40;99.90;;;4.14;100.00;99521.91;10502026;27;96566;-92
2023/12/20 14:26:14;;;;;;;4.47;1.97;;;6.40;99.90;;;4.31;100.00;99549.22;10422140;27;97682;-94
2023/12/20 14:31:17;;;;;;;4.20;2.13;;;6.40;99.90;;;4.29;100.00;99573.06;10457481;27;96644;-94
2023/12/20 14:36:21;;;;;;;4.17;2.33;;;6.40;99.90;;;4.34;100.00;99583.16;10462320;27;97596;-96
2023/12/20 14:41:25;;;;;;;4.77;2.67;;;6.40;99.90;;;4.29;100.00;99565.16;10463279;27;96792;-93
2023/12/20 14:46:29;;;;;;;3.80;2.03;;;6.40;99.90;;;4.27;100.00;99595.22;10466170;27;96530;-95
2023/12/20 14:51:33;;;;;;;5.27;2.37;;;6.40;99.90;;;4.27;100.00;99600.47;10466406;27;97136;-94
2023/12/20 14:56:38;;;;;;;4.57;2.60;;;6.30;99.90;;;4.11;100.00;99606.31;10455096;27;96900;-94
2023/12/20 15:01:45;;;;;;;5.03;2.43;;;6.30;99.90;;;3.95;100.00;99598.16;10478395;27;96924;-93
2023/12/20 15:06:48;;;;;;;5.73;2.43;;;6.20;99.90;;;4.02;100.00;99623.78;10442777;27;96766;-92
2023/12/20 15:11:52;;;;;;;4.63;2.10;;;6.20;99.90;;;3.90;100.00;99630.16;10475524;27;96373;-93
2023/12/20 15:16:55;;;;;;;23.80;9.47;;;6.10;99.90;;;3.93;100.00;99657.94;10462394;27;96962;-93
2023/12/20 15:21:59;;;;;;;28.90;19.97;;;6.10;99.90;;;3.81;100.00;99645.91;10456180;27;96880;-93
2023/12/20 15:27:03;;;;;;;7.50;3.90;;;6.10;99.90;;;3.93;100.00;99673.72;10471066;27;97227;-92
2023/12/20 15:32:06;;;;;;;5.47;3.50;;;6.10;99.90;;;3.81;100.00;99680.91;10444982;27;96486;-94
2023/12/20 15:37:10;;;;;;;4.50;2.60;;;6.00;99.90;;;3.82;100.00;99676.47;10447391;27;96514;-93
2023/12/20 15:42:14;;;;;;;3.87;2.23;;;6.00;99.90;;;3.79;100.00;99689.91;10446547;27;96564;-92
2023/12/20 15:47:18;;;;;;;4.23;2.70;;;5.90;99.90;;;3.74;100.00;99677.16;10451319;27;96552;-95
2023/12/20 15:52:21;;;;;;;4.87;2.40;;;6.00;99.90;;;3.84;100.00;99688.53;10467380;27;96416;-95
2023/12/20 15:57:25;;;;;;;5.37;2.47;;;6.00;99.90;;;3.83;100.00;99684.22;10457470;27;96609;-93
2023/12/20 16:02:31;;;;;;;9.27;4.27;;;6.10;99.90;;;3.84;100.00;99693.78;10469392;27;96438;-93
2023/12/20 16:07:34;;;;;;;7.10;3.03;;;6.10;99.90;;;3.86;100.00;99717.28;10447963;27;96560;-92
2023/12/20 16:12:39;;;;;;;5.77;3.40;;;6.00;99.90;;;3.84;100.00;99719.22;10449977;27;96710;-95
2023/12/20 16:17:43;;;;;;;6.77;3.87;;;5.90;99.90;;;3.75;100.00;99724.31;10518595;27;96543;-93
2023/12/20 16:22:47;;;;;;;6.23;3.20;;;5.90;99.90;;;3.64;100.00;99727.06;10534398;27;96769;-92
2023/12/20 16:27:50;;;;;;;6.30;3.60;;;5.80;99.90;;;3.61;100.00;99740.50;10519804;27;96615;-93
2023/12/20 16:32:54;;;;;;;15.23;6.53;;;5.70;99.90;;;3.46;100.00;99741.81;10497911;27;96535;-92
2023/12/20 16:37:58;;;;;;;9.73;5.57;;;5.60;99.90;;;3.32;100.00;99743.03;10439506;27;96560;-93
2023/12/20 16:43:03;;;;;;;8.33;4.77;;;5.40;99.90;;;3.20;100.00;99746.72;10450334;27;97103;-92
2023/12/20 16:48:06;;;;;;;11.37;5.97;;;5.30;99.90;;;3.03;100.00;99740.25;10468049;27;96837;-93
2023/12/20 16:53:10;;;;;;;13.60;5.90;;;5.20;99.90;;;2.97;100.00;99745.22;10450925;27;96902;-93
2023/12/20 16:58:14;;;;;;;15.80;6.50;;;5.10;99.90;;;2.87;100.00;99755.66;10493854;27;96489;-93
2023/12/20 17:03:19;;;;;;;11.80;5.37;;;5.00;99.90;;;2.70;100.00;99741.34;10471210;27;96625;-92
2023/12/20 17:08:23;;;;;;;13.13;6.77;;;4.90;99.90;;;2.69;100.00;99748.34;10455765;27;98179;-91
2023/12/20 17:13:30;;;;;;;13.40;5.20;;;4.80;99.90;;;2.69;100.00;99753.59;10464829;27;96841;-89
2023/12/20 17:18:34;;;;;;;10.33;4.73;;;4.80;99.90;;;2.78;100.00;99762.50;10454964;27;96458;-92
2023/12/20 17:23:38;;;;;;;7.47;3.60;;;4.90;99.90;;;2.77;100.00;99755.59;10433925;27;96768;-92
2023/12/20 17:28:42;;;;;;;5.40;2.40;;;4.90;99.90;;;2.83;100.00;99751.63;10461832;27;96679;-91
2023/12/20 17:33:46;;;;;;;6.77;3.70;;;4.90;99.90;;;2.91;100.00;99762.31;10484562;27;98115;-91
2023/12/20 17:38:50;;;;;;;6.90;4.00;;;5.00;99.90;;;2.87;100.00;99769.59;10501802;27;96971;-90
2023/12/20 17:43:57;;;;;;;7.63;3.57;;;5.00;99.90;;;2.55;100.00;99747.84;10440619;27;96529;-91
2023/12/20 17:49:01;;;;;;;9.70;4.97;;;4.90;99.90;;;2.45;100.00;99765.31;10474630;27;96961;-91
2023/12/20 17:54:04;;;;;;;10.63;4.07;;;4.70;99.90;;;2.40;100.00;99774.41;10444151;27;96519;-92
2023/12/20 17:59:08;;;;;;;13.37;4.90;;;4.60;99.90;;;2.24;100.00;99758.25;10456246;27;96519;-92
2023/12/20 18:04:12;;;;;;;11.77;6.13;;;4.50;99.90;;;2.34;100.00;99789.78;10497704;27;96526;-91
2023/12/20 18:09:16;;;;;;;15.07;6.27;;;4.50;99.90;;;2.05;100.00;99760.72;10500246;27;96558;-92
2023/12/20 18:14:20;;;;;;;13.50;6.77;;;4.30;99.90;;;2.10;100.00;99810.97;10503659;27;96639;-93
2023/12/20 18:19:24;;;;;;;16.13;6.83;;;4.20;99.90;;;1.91;100.00;99800.28;10496923;27;96446;-92
2023/12/20 18:24:28;;;;;;;11.30;6.40;;;4.10;99.90;;;1.93;100.00;99811.50;10438968;27;96649;-92
2023/12/20 18:29:31;;;;;;;15.07;6.63;;;4.00;99.90;;;1.85;100.00;99799.81;10488056;27;96874;-92
2023/12/20 18:34:35;;;;;;;27.40;9.80;;;3.90;99.90;;;1.79;100.00;99809.94;10470212;27;96737;-92
2023/12/20 18:39:39;;;;;;;18.40;7.43;;;3.90;99.90;;;1.72;100.00;99820.06;10469433;27;97378;-92
2023/12/20 18:44:43;;;;;;;19.93;7.37;;;3.80;99.90;;;1.60;100.00;99813.19;10441081;27;96579;-92
2023/12/20 18:49:49;;;;;;;12.80;6.23;;;3.70;99.90;;;1.59;100.00;99809.72;10461648;27;96857;-91
2023/12/20 18:54:53;;;;;;;16.17;7.87;;;3.70;99.90;;;1.40;100.00;99793.78;10452135;27;98292;-93
2023/12/20 18:59:57;;;;;;;11.73;6.43;;;3.60;99.90;;;1.54;100.00;99827.59;10443303;27;96462;-92
2023/12/20 19:05:05;;;;;;;12.13;5.53;;;3.60;99.90;;;1.56;100.00;99828.31;10442861;27;96928;-94
2023/12/20 19:10:10;;;;;;;9.17;5.10;;;3.70;99.90;;;1.57;100.00;99835.22;10475739;27;96585;-92
2023/12/20 19:15:14;;;;;;;7.97;4.77;;;3.70;99.90;;;1.49;100.00;99829.72;10459867;27;97183;-93
2023/12/20 19:20:18;;;;;;;8.27;4.63;;;3.70;99.90;;;1.69;100.00;99836.06;10481243;27;96460;-93
2023/12/20 19:25:22;;;;;;;7.43;3.57;;;3.80;99.90;;;1.80;100.00;99848.28;10461540;27;96982;-93
2023/12/20 19:30:26;;;;;;;5.77;3.50;;;3.90;99.90;;;1.86;100.00;99843.41;10460620;27;97158;-94
2023/12/20 19:35:32;;;;;;;6.83;2.80;;;4.00;99.90;;;2.01;100.00;99843.97;10462168;27;96493;-93
2023/12/20 19:40:36;;;;;;;6.67;3.03;;;4.10;99.90;;;2.19;100.00;99844.31;10470532;27;97206;-92
2023/12/20 19:45:40;;;;;;;6.13;2.50;;;4.30;99.90;;;2.25;100.00;99842.97;10464071;27;96790;-92
2023/12/20 19:50:43;;;;;;;5.30;2.90;;;4.30;99.90;;;2.45;100.00;99850.06;10431092;27;97429;-93
2023/12/20 19:55:47;;;;;;;6.00;3.00;;;4.50;99.90;;;2.55;100.00;99834.41;10479386;27;96769;-93
2023/12/20 20:00:50;;;;;;;4.83;2.93;;;4.60;99.90;;;2.63;100.00;99842.47;10445595;27;96774;-92
2023/12/20 20:05:58;;;;;;;6.27;3.30;;;4.70;99.90;;;2.57;100.00;99837.75;10444233;27;96444;-91
2023/12/20 20:11:02;;;;;;;7.60;4.10;;;4.70;99.90;;;2.62;100.00;99838.19;10438615;27;96765;-92
2023/12/20 20:16:05;;;;;;;5.43;3.30;;;4.70;99.90;;;2.56;100.00;99847.41;10472775;27;96982;-91
2023/12/20 20:21:12;;;;;;;5.40;2.67;;;4.70;99.90;;;2.35;100.00;99838.66;10431458;27;96897;-92
2023/12/20 20:26:16;;;;;;;6.40;2.97;;;4.60;99.90;;;2.23;100.00;99850.97;10435619;27;98297;-92
2023/12/20 20:31:19;;;;;;;6.77;3.97;;;4.40;99.90;;;2.03;100.00;99852.53;10448125;27;98291;-91
2023/12/20 20:36:23;;;;;;;26.87;9.67;;;4.20;99.90;;;1.78;100.00;99847.59;10449621;27;96572;-93
2023/12/20 20:41:38;;;;;;;9.73;4.70;;;4.10;99.90;;;1.59;100.00;99850.81;10471468;27;96589;-93
2023/12/20 20:46:44;;;;;;;11.87;4.73;;;3.80;99.90;;;1.36;100.00;99847.34;10466093;27;96979;-92
2023/12/20 20:51:50;;;;;;;24.00;8.60;;;3.60;99.90;;;1.22;100.00;99842.34;10450544;27;97180;-92